Latest Weather Observations for Yarrawonga

IDN60801

Issued at 1:05 pm EDT Friday 21 November 2014 (issued every 30 minutes, with the page automatically refreshed every 10 minutes)

About weather observations | Map of weather stations | Latest weather observations for NSW | Other Formats
Station Details ID: 081124 Name: YARRAWONGA Lat: -36.03 Lon: 146.03 Height: 128.9 m
Data from the previous 72 hours. | See also: Recent months at Yarrawonga
Date/Time
EDT
Temp
°C
App
Temp
°C
Dew
Point
Rel
Hum
%
Delta-T
°C
Wind Press
QNH
hPa
Press
MSL
hPa
Rain
since 9 am
mm
Dir
 
Spd
km/h
Gust
km/h
Spd
kts
Gust
kts
21/01:00pm 26.9 23.9 11.8 39 8.7 WSW 19 28 10 15 1010.0 1009.6 0.0
21/12:30pm 26.1 23.9 13.2 44 7.6 SW 17 30 9 16 1010.1 1009.7 0.0
21/12:00pm 25.4 22.8 13.3 47 7.1 WSW 19 28 10 15 1010.2 1009.8 0.0
21/11:30am 24.7 22.2 13.6 50 6.5 WSW 19 33 10 18 1010.4 1010.0 0.0
21/11:00am 23.7 21.1 13.3 52 6.1 W 19 28 10 15 1010.4 1010.0 0.0
21/10:30am 23.9 20.8 13.4 51 6.1 W 22 33 12 18 1010.4 1010.0 0.0
21/10:00am 22.3 19.8 13.6 58 5.1 W 19 26 10 14 1010.2 1009.8 0.0
21/09:30am 22.0 19.4 13.9 60 4.7 W 20 32 11 17 1010.1 1009.7 0.0
21/09:00am 21.4 19.2 14.3 64 4.2 W 19 26 10 14 1009.6 1009.2 0.0
21/08:30am 21.0 18.9 15.1 69 3.5 W 20 26 11 14 1009.7 1009.3 0.0
21/08:00am 20.0 16.7 15.0 73 3.0 W 26 35 14 19 1009.4 1009.0 0.0
21/07:30am 21.0 18.8 14.4 66 3.9 W 19 28 10 15 1009.1 1008.7 0.0
21/07:00am 20.4 19.8 14.5 69 3.5 WNW 11 15 6 8 1008.5 1008.1 0.0
21/06:30am 18.9 19.0 14.4 75 2.6 NW 7 13 4 7 1008.2 1007.8 0.0
21/06:00am 18.1 18.2 14.0 77 2.4 WNW 6 7 3 4 1007.9 1007.5 0.0
21/05:30am 18.0 17.8 13.7 76 2.5 NNW 7 9 4 5 1007.6 1007.2 0.0
21/05:00am 19.8 19.9 14.4 71 3.2 NNW 7 9 4 5 1007.6 1007.2 0.0
21/04:30am 20.6 20.5 14.0 66 3.8 NNW 7 9 4 5 1007.3 1006.9 0.0
21/04:00am 20.3 20.3 13.7 66 3.8 NW 6 7 3 4 1007.2 1006.8 0.0
21/03:30am 20.6 20.0 13.6 64 4.0 WNW 9 11 5 6 1007.0 1006.6 0.0
21/03:00am 20.0 20.4 14.8 72 3.1 NNW 6 7 3 4 1006.7 1006.4 0.0
21/02:30am 19.3 19.8 13.9 71 3.1 NW 4 6 2 3 1006.6 1006.3 0.0
21/02:00am 19.6 20.5 14.0 70 3.3 W 2 6 1 3 1006.5 1006.2 0.0
21/01:30am 19.3 19.7 13.7 70 3.2 WSW 4 11 2 6 1006.4 1006.1 0.0
21/01:00am 20.2 20.5 13.4 65 3.9 N 4 6 2 3 1006.5 1006.2 0.0
21/12:30am 20.8 21.5 13.3 62 4.3 SSE 2 4 1 2 1006.6 1006.3 0.0
21/12:00am 21.2 21.0 13.1 60 4.7 SSE 6 11 3 6 1007.1 1006.7 0.0
 
Date/Time
EDT
Temp
°C
App
Temp
°C
Dew
Point
Rel
Hum
%
Delta-T
°C
Wind Press
QNH
hPa
Press
MSL
hPa
Rain
since 9 am
mm
Dir
 
Spd
km/h
Gust
km/h
Spd
kts
Gust
kts
20/11:30pm 21.6 20.2 13.5 60 4.7 SSW 13 19 7 10 1007.9 1007.5 0.0
20/11:00pm 22.1 21.4 13.2 57 5.2 SSE 9 13 5 7 1007.9 1007.5 0.0
20/10:30pm 22.6 20.8 13.4 56 5.3 SW 15 22 8 12 1009.2 1008.8 0.0
20/10:00pm 23.6 20.1 12.3 49 6.5 SW 22 32 12 17 1009.4 1009.0 0.0
20/09:30pm 24.3 19.6 11.9 45 7.1 SW 28 41 15 22 1009.1 1008.7 0.0
20/09:00pm 24.7 19.1 12.0 45 7.3 WSW 33 46 18 25 1008.8 1008.4 0.0
20/08:30pm 26.0 19.7 11.0 39 8.5 WSW 35 52 19 28 1008.0 1007.6 0.0
20/08:27pm 26.3 20.5 10.9 38 8.7 WSW 32 52 17 28 1007.9 1007.5 0.0
20/08:00pm 27.4 22.7 9.3 32 10.1 SW 24 33 13 18 1006.7 1006.4 0.0
20/07:30pm 28.1 22.9 8.9 30 10.6 SW 26 37 14 20 1006.4 1006.1 0.0
20/07:00pm 28.6 23.7 8.3 28 11.2 SW 24 35 13 19 1006.0 1005.7 0.0
20/06:30pm 29.3 22.1 7.8 26 11.7 SW 35 46 19 25 1005.7 1005.4 0.0
20/06:00pm 30.8 24.0 5.3 20 13.5 SW 30 44 16 24 1005.1 1004.8 0.0
20/05:42pm 31.5 22.1 4.3 18 14.2 WSW 43 52 23 28 1004.9 1004.6 0.0
20/05:30pm 32.2 26.9 3.2 16 14.9 WSW 20 30 11 16 1004.7 1004.4 0.0
20/05:00pm 32.5 29.4 3.5 16 15.1 WSW 9 15 5 8 1004.3 1004.0 0.0
20/04:30pm 32.6 28.0 3.5 16 15.1 WSW 17 30 9 16 1004.7 1004.4 0.0
20/04:00pm 33.3 28.8 2.2 14 15.9 NW 15 26 8 14 1004.6 1004.3 0.0
20/03:30pm 33.8 28.5 1.6 13 16.3 NNW 19 26 10 14 1004.9 1004.6 0.0
20/03:00pm 33.6 28.2 1.4 13 16.3 NNW 19 28 10 15 1005.5 1005.2 0.0
20/02:30pm 34.0 28.7 1.7 13 16.4 W 19 24 10 13 1006.0 1005.7 0.0
20/02:00pm 34.2 29.1 0.8 12 16.8 WNW 17 30 9 16 1006.5 1006.2 0.0
20/01:30pm 34.2 29.5 0.8 12 16.7 WNW 15 28 8 15 1007.0 1006.6 0.0
20/01:00pm 34.2 27.6 -0.4 11 17.0 NW 24 39 13 21 1007.7 1007.3 0.0
20/12:30pm 33.7 27.4 -0.8 11 16.8 NNW 22 39 12 21 1008.3 1007.9 0.0
20/12:00pm 33.8 27.0 0.5 12 16.6 N 26 35 14 19 1008.7 1008.3 0.0
20/11:30am 32.8 26.2 -0.3 12 16.1 N 24 35 13 19 1009.3 1008.9 0.0
20/11:00am 31.5 25.8 2.7 16 14.6 N 22 30 12 16 1009.8 1009.4 0.0
20/10:30am 29.8 24.5 2.9 18 13.6 N 20 24 11 13 1010.1 1009.7 0.0
20/10:00am 27.2 23.6 4.9 24 11.5 NE 13 19 7 10 1010.7 1010.4 0.0
20/09:30am 24.6 20.9 6.4 31 9.4 NE 15 19 8 10 1011.0 1010.7 0.0
20/09:00am 23.1 19.8 8.0 38 8.0 NE 15 20 8 11 1011.4 1011.1 0.0
20/08:30am 20.1 17.4 9.1 49 5.8 ENE 13 19 7 10 1011.3 1011.0 0.0
20/08:00am 18.5 15.9 9.3 55 4.9 ENE 13 19 7 10 1011.7 1011.4 0.0
20/07:30am 18.0 16.2 9.6 58 4.4 E 9 19 5 10 1011.6 1011.3 0.0
20/07:00am 15.3 13.4 9.2 67 3.2 E 9 11 5 6 1011.5 1011.2 0.0
20/06:30am 13.1 10.6 8.4 73 2.4 E 11 13 6 7 1011.6 1011.3 0.0
20/06:00am 12.8 10.3 8.1 73 2.3 E 11 13 6 7 1011.5 1011.2 0.0
20/05:30am 12.8 10.7 8.1 73 2.3 E 9 9 5 5 1011.3 1011.0 0.0
20/05:00am 12.9 11.1 8.0 72 2.4 E 7 9 4 5 1011.2 1010.9 0.0
20/04:30am 13.5 11.7 7.9 69 2.8 E 7 9 4 5 1011.0 1010.7 0.0
20/04:00am 13.2 10.9 7.4 68 2.9 E 9 11 5 6 1011.1 1010.8 0.0
20/03:30am 13.1 10.4 7.3 68 2.8 E 11 13 6 7 1011.2 1010.9 0.0
20/03:00am 13.1 11.1 7.3 68 2.8 E 7 9 4 5 1011.3 1011.0 0.0
20/02:30am 13.5 11.5 7.1 65 3.1 E 7 9 4 5 1011.7 1011.4 0.0
20/02:00am 13.4 10.6 7.0 65 3.1 E 11 13 6 7 1011.9 1011.6 0.0
20/01:30am 14.1 12.1 7.2 63 3.4 E 7 7 4 4 1012.4 1012.1 0.0
20/01:00am 13.5 11.7 7.3 66 3.0 E 6 7 3 4 1012.5 1012.2 0.0
20/12:30am 14.1 12.4 7.6 65 3.2 E 6 6 3 3 1012.8 1012.5 0.0
20/12:00am 14.7 13.3 7.3 61 3.7 E 4 6 2 3 1012.8 1012.5 0.0
 
Date/Time
EDT
Temp
°C
App
Temp
°C
Dew
Point
Rel
Hum
%
Delta-T
°C
Wind Press
QNH
hPa
Press
MSL
hPa
Rain
since 9 am
mm
Dir
 
Spd
km/h
Gust
km/h
Spd
kts
Gust
kts
19/11:30pm 14.5 13.3 8.0 65 3.3 E 4 4 2 2 1013.1 1012.8 0.0
19/11:00pm 15.7 15.2 8.0 60 3.9 CALM 0 4 0 2 1013.2 1012.9 0.0
19/10:30pm 16.7 14.8 6.5 51 5.0 E 6 6 3 3 1013.4 1013.1 0.0
19/10:00pm 16.7 15.7 8.9 60 4.0 SSW 4 4 2 2 1013.4 1013.1 0.0
19/09:30pm 17.8 16.3 6.7 48 5.5 SE 4 6 2 3 1013.3 1013.0 0.0
19/09:00pm 20.5 18.8 5.7 38 7.4 SSW 4 4 2 2 1013.2 1012.9 0.0
19/08:30pm 22.4 20.7 5.8 34 8.4 SW 4 4 2 2 1013.2 1012.9 0.0
19/08:00pm 23.7 21.6 6.0 32 9.1 WSW 6 7 3 4 1013.2 1012.9 0.0
19/07:30pm 27.5 24.7 3.2 21 12.1 W 7 9 4 5 1013.1 1012.8 0.0
19/07:00pm 28.1 25.1 2.3 19 12.7 WSW 7 11 4 6 1013.0 1012.7 0.0
19/06:30pm 29.0 25.7 2.3 18 13.3 WNW 9 13 5 7 1012.9 1012.6 0.0
19/06:00pm 29.5 26.1 1.9 17 13.7 NW 9 15 5 8 1013.0 1012.7 0.0
19/05:30pm 28.5 24.6 1.1 17 13.3 NW 11 17 6 9 1013.4 1013.1 0.0
19/05:00pm 30.1 26.0 2.4 17 13.9 W 13 20 7 11 1013.5 1013.2 0.0
19/04:30pm 29.6 25.8 2.0 17 13.7 WNW 11 19 6 10 1013.9 1013.6 0.0
19/04:00pm 29.6 26.7 2.8 18 13.5 SW 7 13 4 7 1014.3 1014.0 0.0
19/03:30pm 28.5 26.1 4.1 21 12.5 NNW 6 13 3 7 1014.8 1014.5 0.0
19/03:00pm 28.4 25.1 4.6 22 12.2 WNW 11 19 6 10 1015.5 1015.1 0.0
19/02:30pm 28.1 26.0 3.7 21 12.3 N 4 13 2 7 1016.1 1015.7 0.0
19/02:00pm 27.8 24.4 4.2 22 12.0 WSW 11 19 6 10 1016.7 1016.3 0.0
19/01:30pm 27.2 23.6 3.0 21 12.0 NNW 11 20 6 11 1017.0 1016.6 0.0
19/01:00pm 25.9 22.7 4.9 26 10.7 NNW 11 19 6 10 1017.4 1017.1 0.0
19/12:30pm 26.3 24.7 6.4 28 10.4 NNE 4 9 2 5 1018.0 1017.7 0.0
19/12:00pm 25.8 23.7 5.9 28 10.3 NNW 6 15 3 8 1018.4 1018.1 0.0
19/11:30am 25.3 23.2 6.0 29 10.0 N 6 13 3 7 1018.7 1018.4 0.0
19/11:00am 24.6 23.2 7.3 33 9.1 NNE 4 7 2 4 1019.0 1018.7 0.0
19/10:30am 23.4 22.3 8.3 38 8.1 NE 4 9 2 5 1019.1 1018.8 0.0
19/10:00am 21.9 20.9 8.8 43 7.0 NE 4 7 2 4 1019.4 1019.1 0.0
19/09:30am 20.7 19.8 9.3 48 6.1 NE 4 7 2 4 1019.7 1019.4 0.0
19/09:00am 19.2 18.1 9.9 55 5.0 E 6 9 3 5 1019.8 1019.5 0.0
19/08:30am 17.5 15.8 9.9 61 4.0 ENE 9 13 5 7 1019.8 1019.5 0.0
19/08:00am 16.4 15.8 10.3 67 3.2 SE 4 6 2 3 1019.5 1019.2 0.0
19/07:30am 13.2 13.1 10.7 85 1.3 SW 2 4 1 2 1019.1 1018.8 0.0
19/07:00am 10.9 10.7 9.2 89 0.9 CALM 0 0 0 0 1018.8 1018.5 0.0
19/06:30am 8.5 7.7 8.1 97 0.2 WSW 2 4 1 2 1018.5 1018.2 0.0
19/06:00am 8.3 7.8 7.7 96 0.3 CALM 0 0 0 0 1018.5 1018.2 0.0
19/05:30am 8.9 8.4 8.0 94 0.4 CALM 0 0 0 0 1018.3 1018.0 0.0
19/05:00am 9.4 8.5 7.8 90 0.8 WSW 2 4 1 2 1018.3 1018.0 0.0
19/04:30am 9.7 8.4 7.8 88 0.9 S 4 6 2 3 1018.1 1017.8 0.0
19/04:00am 10.4 8.8 8.0 85 1.2 SW 6 7 3 4 1018.1 1017.8 0.0
19/03:30am 9.7 7.9 8.1 90 0.8 SSW 7 9 4 5 1018.3 1018.0 0.0
19/03:00am 9.9 8.2 8.2 89 0.8 SW 7 9 4 5 1018.5 1018.2 0.0
19/02:30am 9.6 7.8 7.9 89 0.8 SW 7 7 4 4 1018.9 1018.6 0.0
19/02:00am 11.2 9.6 8.2 82 1.5 WSW 6 6 3 3 1019.1 1018.8 0.0
19/01:30am 11.9 10.8 8.4 79 1.7 WSW 4 6 2 3 1019.3 1019.0 0.0
19/01:00am 11.8 10.2 7.9 77 1.9 S 6 7 3 4 1019.3 1019.0 0.0
19/12:30am 12.0 10.3 8.3 78 1.8 SSW 7 9 4 5 1019.4 1019.1 0.0
19/12:00am 12.7 10.6 8.2 74 2.2 S 9 13 5 7 1019.4 1019.1 0.0
 
Date/Time
EDT
Temp
°C
App
Temp
°C
Dew
Point
Rel
Hum
%
Delta-T
°C
Wind Press
QNH
hPa
Press
MSL
hPa
Rain
since 9 am
mm
Dir
 
Spd
km/h
Gust
km/h
Spd
kts
Gust
kts
18/11:30pm 13.3 11.6 7.7 69 2.8 S 6 11 3 6 1019.6 1019.3 0.0
18/11:00pm 13.4 11.7 8.3 71 2.5 WSW 7 9 4 5 1019.7 1019.4 0.0
18/10:30pm 14.2 12.4 7.9 66 3.1 SW 7 9 4 5 1019.8 1019.5 0.0
18/10:00pm 15.6 12.9 7.4 58 4.1 WSW 11 15 6 8 1019.6 1019.3 0.0
18/09:30pm 17.1 14.4 7.2 52 5.0 W 11 13 6 7 1019.3 1019.0 0.0
18/09:00pm 18.5 15.6 6.7 46 5.9 W 11 15 6 8 1019.0 1018.7 0.0
18/08:30pm 19.4 16.1 6.5 43 6.5 W 13 17 7 9 1018.8 1018.5 0.0
18/08:00pm 20.9 17.2 6.1 38 7.4 W 15 20 8 11 1018.4 1018.1 0.0
18/07:30pm 22.7 18.2 6.0 34 8.5 W 19 22 10 12 1018.0 1017.7 0.0
18/07:00pm 23.7 19.2 6.0 32 9.1 W 19 24 10 13 1017.7 1017.4 0.0
18/06:30pm 24.4 20.2 5.7 30 9.6 WSW 17 24 9 13 1017.4 1017.1 0.0
18/06:00pm 25.1 20.4 5.3 28 10.1 WSW 19 26 10 14 1017.4 1017.1 0.0
18/05:30pm 25.3 20.6 5.0 27 10.3 WSW 19 28 10 15 1017.2 1016.8 0.0
18/05:00pm 25.3 21.1 3.9 25 10.6 WSW 15 26 8 14 1017.2 1016.8 0.0
18/04:30pm 25.4 20.6 4.5 26 10.5 WSW 19 30 10 16 1017.4 1017.1 0.0
18/04:00pm 24.9 20.0 4.1 26 10.4 WSW 19 28 10 15 1017.4 1017.1 0.0
18/03:30pm 25.1 20.5 3.7 25 10.6 W 17 26 9 14 1017.7 1017.4 0.0
18/03:00pm 24.5 20.4 4.3 27 10.1 W 15 26 8 14 1018.0 1017.7 0.0
18/02:30pm 24.8 21.4 4.0 26 10.4 WSW 11 22 6 12 1018.3 1018.0 0.0
18/02:00pm 23.7 20.1 5.1 30 9.4 W 13 20 7 11 1018.6 1018.3 0.0
18/01:30pm 23.3 19.7 5.2 31 9.1 W 13 24 7 13 1018.8 1018.5 0.0

Other Formats:

Comma delimited format used in spreadsheet applications
http://www.bom.gov.au/fwo/IDN60801/IDN60801.94862.axf

JavaScript Object Notation format (JSON) in row-major order
http://www.bom.gov.au/fwo/IDN60801/IDN60801.94862.json